sensor_id;sensor_type;location;lat;lon;timestamp;pressure;altitude;pressure_sealevel;temperature;humidity
61906;BME280;47863;55.766;37.672;2023-05-27T00:01:26;99575.47;;;17.57;54.93
61906;BME280;47863;55.766;37.672;2023-05-27T00:03:52;99604.19;;;17.72;55.27
61906;BME280;47863;55.766;37.672;2023-05-27T00:06:18;99580.25;;;17.55;55.58
61906;BME280;47863;55.766;37.672;2023-05-27T00:08:43;99597.53;;;17.61;55.33
61906;BME280;47863;55.766;37.672;2023-05-27T00:11:09;99581.09;;;17.49;55.59
61906;BME280;47863;55.766;37.672;2023-05-27T00:13:35;99592.34;;;17.53;55.84
61906;BME280;47863;55.766;37.672;2023-05-27T00:16:00;99593.38;;;17.58;55.85
61906;BME280;47863;55.766;37.672;2023-05-27T00:18:26;99592.34;;;17.53;55.78
61906;BME280;47863;55.766;37.672;2023-05-27T00:20:52;99615.91;;;17.52;55.83
61906;BME280;47863;55.766;37.672;2023-05-27T00:23:18;99604.44;;;17.50;56.17
61906;BME280;47863;55.766;37.672;2023-05-27T00:25:44;99588.44;;;17.42;56.29
61906;BME280;47863;55.766;37.672;2023-05-27T00:28:10;99595.09;;;17.46;56.24
61906;BME280;47863;55.766;37.672;2023-05-27T00:30:36;99593.41;;;17.45;56.39
61906;BME280;47863;55.766;37.672;2023-05-27T00:33:02;99591.75;;;17.44;56.42
61906;BME280;47863;55.766;37.672;2023-05-27T00:35:28;99578.84;;;17.39;56.66
61906;BME280;47863;55.766;37.672;2023-05-27T00:37:54;99573.66;;;17.38;56.79
61906;BME280;47863;55.766;37.672;2023-05-27T00:40:21;99592.97;;;17.41;56.95
61906;BME280;47863;55.766;37.672;2023-05-27T00:42:48;99581.34;;;17.41;56.85
61906;BME280;47863;55.766;37.672;2023-05-27T00:45:14;99585.72;;;17.42;56.93
61906;BME280;47863;55.766;37.672;2023-05-27T00:47:40;99574.03;;;17.41;57.16
61906;BME280;47863;55.766;37.672;2023-05-27T00:50:06;99562.19;;;17.29;57.24
61906;BME280;47863;55.766;37.672;2023-05-27T00:52:33;99552.00;;;17.24;57.29
61906;BME280;47863;55.766;37.672;2023-05-27T00:54:59;99555.75;;;17.23;57.72
61906;BME280;47863;55.766;37.672;2023-05-27T00:57:25;99583.63;;;17.37;57.53
61906;BME280;47863;55.766;37.672;2023-05-27T00:59:52;99595.72;;;17.35;57.83
61906;BME280;47863;55.766;37.672;2023-05-27T01:02:18;99588.00;;;17.32;57.66
61906;BME280;47863;55.766;37.672;2023-05-27T01:04:44;99565.13;;;17.08;57.60
61906;BME280;47863;55.766;37.672;2023-05-27T01:07:20;99572.63;;;17.05;58.23
61906;BME280;47863;55.766;37.672;2023-05-27T01:09:53;99601.56;;;17.18;58.58
61906;BME280;47863;55.766;37.672;2023-05-27T01:15:23;99583.25;;;17.07;58.28
61906;BME280;47863;55.766;37.672;2023-05-27T01:17:51;99588.44;;;17.09;58.52
61906;BME280;47863;55.766;37.672;2023-05-27T01:20:20;99602.59;;;17.17;58.57
61906;BME280;47863;55.766;37.672;2023-05-27T01:22:47;99602.59;;;17.17;58.54
61906;BME280;47863;55.766;37.672;2023-05-27T01:25:12;99592.59;;;17.11;58.79
61906;BME280;47863;55.766;37.672;2023-05-27T01:27:39;99604.69;;;17.22;58.68
61906;BME280;47863;55.766;37.672;2023-05-27T01:30:06;99608.84;;;17.24;58.84
61906;BME280;47863;55.766;37.672;2023-05-27T01:32:36;99604.88;;;17.27;58.73
61906;BME280;47863;55.766;37.672;2023-05-27T01:35:35;99611.53;;;17.31;61.28
61906;BME280;47863;55.766;37.672;2023-05-27T01:38:07;99598.44;;;17.28;59.17
61906;BME280;47863;55.766;37.672;2023-05-27T01:40:34;99589.06;;;17.17;58.81
61906;BME280;47863;55.766;37.672;2023-05-27T01:43:01;99604.88;;;17.27;59.05
61906;BME280;47863;55.766;37.672;2023-05-27T01:45:27;99607.78;;;17.25;59.08
61906;BME280;47863;55.766;37.672;2023-05-27T01:47:52;99608.84;;;17.24;59.43
61906;BME280;47863;55.766;37.672;2023-05-27T01:50:18;99605.91;;;17.19;59.39
61906;BME280;47863;55.766;37.672;2023-05-27T01:52:44;99602.59;;;17.17;59.69
61906;BME280;47863;55.766;37.672;2023-05-27T01:55:10;99595.75;;;17.08;59.63
61906;BME280;47863;55.766;37.672;2023-05-27T01:57:36;99602.81;;;17.09;60.23
61906;BME280;47863;55.766;37.672;2023-05-27T02:00:03;99599.06;;;17.10;60.20
61906;BME280;47863;55.766;37.672;2023-05-27T02:02:32;99605.72;;;17.08;60.26
61906;BME280;47863;55.766;37.672;2023-05-27T02:04:58;99602.38;;;17.05;60.05
61906;BME280;47863;55.766;37.672;2023-05-27T02:07:23;99568.66;;;16.81;60.23
61906;BME280;47863;55.766;37.672;2023-05-27T02:09:49;99611.75;;;17.03;60.47
61906;BME280;47863;55.766;37.672;2023-05-27T02:12:15;99605.94;;;16.99;60.41
61906;BME280;47863;55.766;37.672;2023-05-27T02:14:41;99617.38;;;17.01;60.60
61906;BME280;47863;55.766;37.672;2023-05-27T02:17:06;99625.69;;;17.00;60.49
61906;BME280;47863;55.766;37.672;2023-05-27T02:19:53;99608.22;;;16.89;60.68
61906;BME280;47863;55.766;37.672;2023-05-27T02:22:21;99629.84;;;16.96;60.69
61906;BME280;47863;55.766;37.672;2023-05-27T02:24:46;99619.84;;;16.90;60.81
61906;BME280;47863;55.766;37.672;2023-05-27T02:27:12;99619.03;;;16.89;60.70
61906;BME280;47863;55.766;37.672;2023-05-27T02:29:38;99620.91;;;16.89;60.84
61906;BME280;47863;55.766;37.672;2023-05-27T02:32:04;99625.47;;;16.88;60.59
61906;BME280;47863;55.766;37.672;2023-05-27T02:34:30;99628.16;;;16.88;60.75
61906;BME280;47863;55.766;37.672;2023-05-27T02:36:55;99613.13;;;16.72;60.90
61906;BME280;47863;55.766;37.672;2023-05-27T02:39:21;99629.84;;;16.82;60.89
61906;BME280;47863;55.766;37.672;2023-05-27T02:41:47;99621.75;;;16.82;60.42
61906;BME280;47863;55.766;37.672;2023-05-27T02:44:13;99636.28;;;16.88;60.58
61906;BME280;47863;55.766;37.672;2023-05-27T02:46:38;99619.59;;;16.78;60.54
61906;BME280;47863;55.766;37.672;2023-05-27T02:49:04;99639.84;;;16.89;60.42
61906;BME280;47863;55.766;37.672;2023-05-27T02:51:29;99650.25;;;16.92;60.51
61906;BME280;47863;55.766;37.672;2023-05-27T02:53:55;99653.56;;;16.94;60.44
61906;BME280;47863;55.766;37.672;2023-05-27T02:56:21;99644.00;;;16.91;60.45
61906;BME280;47863;55.766;37.672;2023-05-27T02:58:46;99634.22;;;16.83;60.13
61906;BME280;47863;55.766;37.672;2023-05-27T03:01:12;99658.97;;;16.94;60.33
61906;BME280;47863;55.766;37.672;2023-05-27T03:03:37;99644.41;;;16.81;60.24
61906;BME280;47863;55.766;37.672;2023-05-27T03:06:03;99667.72;;;16.96;60.18
61906;BME280;47863;55.766;37.672;2023-05-27T03:08:29;99658.97;;;16.94;60.01
61906;BME280;47863;55.766;37.672;2023-05-27T03:10:54;99663.78;;;16.92;60.18
61906;BME280;47863;55.766;37.672;2023-05-27T03:13:20;99678.97;;;16.99;59.90
61906;BME280;47863;55.766;37.672;2023-05-27T03:15:46;99660.88;;;16.93;59.80
61906;BME280;47863;55.766;37.672;2023-05-27T03:18:11;99673.38;;;17.01;59.76
61906;BME280;47863;55.766;37.672;2023-05-27T03:20:37;99664.81;;;17.04;59.60
61906;BME280;47863;55.766;37.672;2023-05-27T03:23:02;99665.25;;;17.08;59.54
61906;BME280;47863;55.766;37.672;2023-05-27T03:25:28;99653.16;;;17.03;59.54
61906;BME280;47863;55.766;37.672;2023-05-27T03:27:54;99672.13;;;17.17;59.36
61906;BME280;47863;55.766;37.672;2023-05-27T03:30:20;99651.53;;;17.09;59.08
61906;BME280;47863;55.766;37.672;2023-05-27T03:32:46;99678.41;;;17.24;59.04
61906;BME280;47863;55.766;37.672;2023-05-27T03:35:12;99669.00;;;17.20;58.96
61906;BME280;47863;55.766;37.672;2023-05-27T03:37:37;99669.88;;;17.34;58.84
61906;BME280;47863;55.766;37.672;2023-05-27T03:40:03;99613.66;;;17.02;58.65
61906;BME280;47863;55.766;37.672;2023-05-27T03:42:29;99677.75;;;17.49;58.64
61906;BME280;47863;55.766;37.672;2023-05-27T03:44:55;99679.44;;;17.56;58.47
61906;BME280;47863;55.766;37.672;2023-05-27T03:47:21;99654.00;;;17.51;58.18
61906;BME280;47863;55.766;37.672;2023-05-27T03:49:47;99663.19;;;17.56;57.84
61906;BME280;47863;55.766;37.672;2023-05-27T03:52:14;99655.69;;;17.58;57.96
61906;BME280;47863;55.766;37.672;2023-05-27T03:54:40;99676.28;;;17.86;57.99
61906;BME280;47863;55.766;37.672;2023-05-27T03:57:07;99691.09;;;17.90;57.59
61906;BME280;47863;55.766;37.672;2023-05-27T03:59:33;99638.56;;;17.64;57.53
61906;BME280;47863;55.766;37.672;2023-05-27T04:01:59;99698.78;;;18.00;57.35
61906;BME280;47863;55.766;37.672;2023-05-27T04:04:24;99689.78;;;18.06;57.16
61906;BME280;47863;55.766;37.672;2023-05-27T04:06:50;99694.97;;;18.14;57.02
61906;BME280;47863;55.766;37.672;2023-05-27T04:09:16;99697.44;;;18.22;56.88
61906;BME280;47863;55.766;37.672;2023-05-27T04:11:42;99667.25;;;18.19;56.69
61906;BME280;47863;55.766;37.672;2023-05-27T04:14:07;99686.16;;;18.32;56.68
61906;BME280;47863;55.766;37.672;2023-05-27T04:16:33;99697.56;;;18.48;56.53
61906;BME280;47863;55.766;37.672;2023-05-27T04:19:02;99689.66;;;18.46;56.17
61906;BME280;47863;55.766;37.672;2023-05-27T04:21:27;99693.13;;;18.60;56.06
61906;BME280;47863;55.766;37.672;2023-05-27T04:23:53;99687.72;;;18.60;56.00
61906;BME280;47863;55.766;37.672;2023-05-27T04:26:19;99706.00;;;18.78;55.57
61906;BME280;47863;55.766;37.672;2023-05-27T04:28:45;99719.34;;;18.86;55.36
61906;BME280;47863;55.766;37.672;2023-05-27T04:31:12;99714.94;;;18.92;55.04
61906;BME280;47863;55.766;37.672;2023-05-27T04:33:41;99709.88;;;18.95;54.68
61906;BME280;47863;55.766;37.672;2023-05-27T04:36:08;99701.28;;;19.05;54.61
61906;BME280;47863;55.766;37.672;2023-05-27T04:38:34;99675.06;;;18.92;54.28
61906;BME280;47863;55.766;37.672;2023-05-27T04:41:00;99713.72;;;19.19;54.11
61906;BME280;47863;55.766;37.672;2023-05-27T04:43:27;99726.03;;;19.22;53.85
61906;BME280;47863;55.766;37.672;2023-05-27T04:45:55;99721.00;;;19.26;53.72
61906;BME280;47863;55.766;37.672;2023-05-27T04:48:22;99708.44;;;19.25;53.65
61906;BME280;47863;55.766;37.672;2023-05-27T04:50:51;99717.81;;;19.29;53.38
61906;BME280;47863;55.766;37.672;2023-05-27T04:53:19;99722.38;;;19.35;53.33
61906;BME280;47863;55.766;37.672;2023-05-27T04:55:45;99699.03;;;19.27;53.14
61906;BME280;47863;55.766;37.672;2023-05-27T04:58:11;99708.75;;;19.41;52.75
61906;BME280;47863;55.766;37.672;2023-05-27T05:00:38;99708.69;;;19.48;52.46
61906;BME280;47863;55.766;37.672;2023-05-27T05:03:20;99708.19;;;19.58;52.06
61906;BME280;47863;55.766;37.672;2023-05-27T05:05:49;99724.81;;;19.75;52.00
61906;BME280;47863;55.766;37.672;2023-05-27T05:08:15;99702.59;;;19.78;51.90
61906;BME280;47863;55.766;37.672;2023-05-27T05:10:41;99733.78;;;20.00;51.52
61906;BME280;47863;55.766;37.672;2023-05-27T05:13:06;99736.66;;;20.24;51.28
61906;BME280;47863;55.766;37.672;2023-05-27T05:15:32;99730.00;;;20.38;50.91
61906;BME280;47863;55.766;37.672;2023-05-27T05:17:58;99733.78;;;20.56;50.63
61906;BME280;47863;55.766;37.672;2023-05-27T05:20:23;99724.09;;;20.78;50.34
61906;BME280;47863;55.766;37.672;2023-05-27T05:22:49;99726.94;;;21.02;49.85
61906;BME280;47863;55.766;37.672;2023-05-27T05:25:15;99725.59;;;21.23;49.54
61906;BME280;47863;55.766;37.672;2023-05-27T05:27:41;99727.16;;;21.31;49.37
61906;BME280;47863;55.766;37.672;2023-05-27T05:30:07;99712.19;;;21.22;49.13
61906;BME280;47863;55.766;37.672;2023-05-27T05:32:33;99733.31;;;21.38;49.16
61906;BME280;47863;55.766;37.672;2023-05-27T05:34:58;99714.81;;;21.28;48.90
61906;BME280;47863;55.766;37.672;2023-05-27T05:37:24;99692.16;;;21.16;48.78
61906;BME280;47863;55.766;37.672;2023-05-27T05:39:50;99731.66;;;21.37;48.76
61906;BME280;47863;55.766;37.672;2023-05-27T05:42:15;99742.06;;;21.40;48.52
61906;BME280;47863;55.766;37.672;2023-05-27T05:44:41;99744.75;;;21.47;48.07
61906;BME280;47863;55.766;37.672;2023-05-27T05:47:07;99728.88;;;21.55;47.48
61906;BME280;47863;55.766;37.672;2023-05-27T05:49:32;99727.81;;;21.56;47.35
61906;BME280;47863;55.766;37.672;2023-05-27T05:51:58;99715.00;;;21.57;47.43
61906;BME280;47863;55.766;37.672;2023-05-27T05:54:23;99744.66;;;21.77;46.97
61906;BME280;47863;55.766;37.672;2023-05-27T05:56:49;99738.97;;;21.78;46.81
61906;BME280;47863;55.766;37.672;2023-05-27T05:59:14;99736.25;;;21.78;46.69
61906;BME280;47863;55.766;37.672;2023-05-27T06:01:40;99741.22;;;21.93;46.38
61906;BME280;47863;55.766;37.672;2023-05-27T06:04:06;99745.63;;;22.06;46.29
61906;BME280;47863;55.766;37.672;2023-05-27T06:06:32;99752.03;;;22.24;46.08
61906;BME280;47863;55.766;37.672;2023-05-27T06:08:57;99744.91;;;22.34;45.28
61906;BME280;47863;55.766;37.672;2023-05-27T06:11:23;99743.13;;;22.40;44.99
61906;BME280;47863;55.766;37.672;2023-05-27T06:13:48;99745.00;;;22.51;44.77
61906;BME280;47863;55.766;37.672;2023-05-27T06:16:14;99714.25;;;22.56;44.20
61906;BME280;47863;55.766;37.672;2023-05-27T06:18:40;99748.69;;;22.86;44.43
61906;BME280;47863;55.766;37.672;2023-05-27T06:21:05;99757.31;;;22.94;44.02
61906;BME280;47863;55.766;37.672;2023-05-27T06:23:31;99753.53;;;22.95;43.96
61906;BME280;47863;55.766;37.672;2023-05-27T06:25:56;99755.56;;;23.29;43.13
61906;BME280;47863;55.766;37.672;2023-05-27T06:28:22;99745.00;;;24.00;42.14
61906;BME280;47863;55.766;37.672;2023-05-27T06:30:48;99753.75;;;24.58;41.44
61906;BME280;47863;55.766;37.672;2023-05-27T06:33:13;99773.56;;;24.87;41.30
61906;BME280;47863;55.766;37.672;2023-05-27T06:35:39;99751.09;;;24.63;41.04
61906;BME280;47863;55.766;37.672;2023-05-27T06:38:05;99779.03;;;24.65;41.38
61906;BME280;47863;55.766;37.672;2023-05-27T06:40:30;99771.84;;;24.59;41.21
61906;BME280;47863;55.766;37.672;2023-05-27T06:42:56;99778.41;;;24.58;40.89
61906;BME280;47863;55.766;37.672;2023-05-27T06:45:22;99770.19;;;24.58;40.77
61906;BME280;47863;55.766;37.672;2023-05-27T06:47:48;99772.41;;;24.61;40.37
61906;BME280;47863;55.766;37.672;2023-05-27T06:50:13;99768.34;;;24.64;40.63
61906;BME280;47863;55.766;37.672;2023-05-27T06:52:39;99766.75;;;24.68;40.25
61906;BME280;47863;55.766;37.672;2023-05-27T06:55:06;99764.31;;;24.71;39.95
61906;BME280;47863;55.766;37.672;2023-05-27T06:57:31;99757.22;;;24.70;40.23
61906;BME280;47863;55.766;37.672;2023-05-27T06:59:57;99761.31;;;24.95;39.27
61906;BME280;47863;55.766;37.672;2023-05-27T07:02:22;99742.69;;;25.46;38.10
61906;BME280;47863;55.766;37.672;2023-05-27T07:04:48;99751.94;;;26.52;36.50
61906;BME280;47863;55.766;37.672;2023-05-27T07:07:13;99765.72;;;27.62;35.39
61906;BME280;47863;55.766;37.672;2023-05-27T07:09:39;99760.50;;;28.17;34.63
61906;BME280;47863;55.766;37.672;2023-05-27T07:12:05;99773.00;;;28.74;33.70
61906;BME280;47863;55.766;37.672;2023-05-27T07:14:34;99780.94;;;29.80;32.30
61906;BME280;47863;55.766;37.672;2023-05-27T07:16:59;99786.75;;;31.29;31.24
61906;BME280;47863;55.766;37.672;2023-05-27T07:19:25;99788.00;;;32.68;29.72
61906;BME280;47863;55.766;37.672;2023-05-27T07:21:50;99782.41;;;34.13;29.12
61906;BME280;47863;55.766;37.672;2023-05-27T07:24:16;99780.03;;;35.53;27.98
61906;BME280;47863;55.766;37.672;2023-05-27T07:26:42;99790.53;;;36.77;26.95
61906;BME280;47863;55.766;37.672;2023-05-27T07:29:08;99788.28;;;37.84;26.07
61906;BME280;47863;55.766;37.672;2023-05-27T07:31:36;99782.38;;;38.93;23.77
61906;BME280;47863;55.766;37.672;2023-05-27T07:34:01;99779.22;;;40.03;23.42
61906;BME280;47863;55.766;37.672;2023-05-27T07:36:27;99771.63;;;41.03;22.24
61906;BME280;47863;55.766;37.672;2023-05-27T07:38:52;99781.63;;;41.98;21.36
61906;BME280;47863;55.766;37.672;2023-05-27T07:41:18;99776.38;;;42.66;20.72
61906;BME280;47863;55.766;37.672;2023-05-27T07:43:44;99763.28;;;43.34;19.82
61906;BME280;47863;55.766;37.672;2023-05-27T07:46:09;99791.16;;;44.10;18.82
61906;BME280;47863;55.766;37.672;2023-05-27T07:48:35;99787.09;;;44.52;18.31
61906;BME280;47863;55.766;37.672;2023-05-27T07:51:01;99785.81;;;44.98;17.43
61906;BME280;47863;55.766;37.672;2023-05-27T07:53:26;99791.22;;;45.25;17.11
61906;BME280;47863;55.766;37.672;2023-05-27T07:55:52;99787.13;;;44.56;16.01
61906;BME280;47863;55.766;37.672;2023-05-27T07:58:17;99788.84;;;44.68;16.29
61906;BME280;47863;55.766;37.672;2023-05-27T08:00:43;99783.47;;;45.11;15.51
61906;BME280;47863;55.766;37.672;2023-05-27T08:03:08;99787.75;;;45.67;14.52
61906;BME280;47863;55.766;37.672;2023-05-27T08:05:34;99791.50;;;46.15;13.84
61906;BME280;47863;55.766;37.672;2023-05-27T08:08:00;99773.75;;;46.57;13.64
61906;BME280;47863;55.766;37.672;2023-05-27T08:10:26;99789.91;;;46.85;12.81
61906;BME280;47863;55.766;37.672;2023-05-27T08:12:52;99793.47;;;47.15;12.56
61906;BME280;47863;55.766;37.672;2023-05-27T08:15:18;99795.00;;;47.34;12.15
61906;BME280;47863;55.766;37.672;2023-05-27T08:17:43;99809.56;;;47.46;11.95
61906;BME280;47863;55.766;37.672;2023-05-27T08:20:10;99803.88;;;47.46;12.19
61906;BME280;47863;55.766;37.672;2023-05-27T08:22:36;99790.50;;;47.47;11.87
61906;BME280;47863;55.766;37.672;2023-05-27T08:25:02;99794.53;;;47.60;11.17
61906;BME280;47863;55.766;37.672;2023-05-27T08:27:52;99793.53;;;47.92;11.27
61906;BME280;47863;55.766;37.672;2023-05-27T08:30:19;99798.13;;;48.28;11.24
61906;BME280;47863;55.766;37.672;2023-05-27T08:32:45;99800.84;;;48.45;10.90
61906;BME280;47863;55.766;37.672;2023-05-27T08:35:11;99788.81;;;48.27;10.72
61906;BME280;47863;55.766;37.672;2023-05-27T08:37:38;99796.81;;;48.43;10.25
61906;BME280;47863;55.766;37.672;2023-05-27T08:40:06;99786.59;;;48.53;10.08
61906;BME280;47863;55.766;37.672;2023-05-27T08:42:33;99804.66;;;48.73;9.92
61906;BME280;47863;55.766;37.672;2023-05-27T08:44:59;99794.34;;;48.90;9.91
61906;BME280;47863;55.766;37.672;2023-05-27T08:47:29;99800.31;;;48.99;8.71
61906;BME280;47863;55.766;37.672;2023-05-27T08:49:57;99799.31;;;48.82;9.75
61906;BME280;47863;55.766;37.672;2023-05-27T08:52:29;99776.34;;;48.62;9.45
61906;BME280;47863;55.766;37.672;2023-05-27T08:55:00;99788.34;;;48.81;9.20
61906;BME280;47863;55.766;37.672;2023-05-27T08:57:30;99773.38;;;48.77;9.33
61906;BME280;47863;55.766;37.672;2023-05-27T08:59:57;99765.34;;;48.64;9.42
61906;BME280;47863;55.766;37.672;2023-05-27T09:02:23;99769.47;;;48.56;9.56
61906;BME280;47863;55.766;37.672;2023-05-27T09:04:49;99780.13;;;48.49;9.19
61906;BME280;47863;55.766;37.672;2023-05-27T09:07:16;99778.53;;;48.44;9.49
61906;BME280;47863;55.766;37.672;2023-05-27T09:09:53;99780.81;;;48.60;8.98
61906;BME280;47863;55.766;37.672;2023-05-27T09:12:23;99778.78;;;48.60;8.81
61906;BME280;47863;55.766;37.672;2023-05-27T09:14:50;99782.44;;;48.61;8.96
61906;BME280;47863;55.766;37.672;2023-05-27T09:17:15;99754.22;;;48.43;9.04
61906;BME280;47863;55.766;37.672;2023-05-27T09:19:41;99779.03;;;48.80;8.77
61906;BME280;47863;55.766;37.672;2023-05-27T09:22:07;99789.78;;;49.00;9.25
61906;BME280;47863;55.766;37.672;2023-05-27T09:24:33;99795.44;;;49.00;8.50
61906;BME280;47863;55.766;37.672;2023-05-27T09:26:58;99777.97;;;48.60;9.40
61906;BME280;47863;55.766;37.672;2023-05-27T09:29:25;99787.84;;;48.44;8.96
61906;BME280;47863;55.766;37.672;2023-05-27T09:31:55;99798.94;;;48.28;9.36
61906;BME280;47863;55.766;37.672;2023-05-27T09:34:23;99780.91;;;47.97;8.92
61906;BME280;47863;55.766;37.672;2023-05-27T09:36:50;99801.34;;;47.74;9.40
61906;BME280;47863;55.766;37.672;2023-05-27T09:39:18;99792.03;;;47.70;9.18
61906;BME280;47863;55.766;37.672;2023-05-27T09:41:53;99794.31;;;47.96;8.68
61906;BME280;47863;55.766;37.672;2023-05-27T09:44:20;99801.00;;;48.24;8.96
61906;BME280;47863;55.766;37.672;2023-05-27T09:46:48;99797.03;;;48.11;9.13
61906;BME280;47863;55.766;37.672;2023-05-27T09:49:19;99799.13;;;48.03;9.29
61906;BME280;47863;55.766;37.672;2023-05-27T09:51:46;99805.16;;;48.12;9.47
61906;BME280;47863;55.766;37.672;2023-05-27T09:54:17;99796.19;;;48.17;8.73
61906;BME280;47863;55.766;37.672;2023-05-27T09:56:44;99797.91;;;48.04;9.29
61906;BME280;47863;55.766;37.672;2023-05-27T09:59:11;99806.53;;;47.82;9.10
61906;BME280;47863;55.766;37.672;2023-05-27T10:01:38;99789.34;;;47.37;9.19
61906;BME280;47863;55.766;37.672;2023-05-27T10:04:06;99791.44;;;47.22;9.06
61906;BME280;47863;55.766;37.672;2023-05-27T10:06:33;99805.53;;;47.37;9.10
61906;BME280;47863;55.766;37.672;2023-05-27T10:09:01;99803.84;;;47.57;8.60
61906;BME280;47863;55.766;37.672;2023-05-27T10:11:32;99788.84;;;47.64;8.59
61906;BME280;47863;55.766;37.672;2023-05-27T10:14:01;99799.69;;;47.80;8.98
61906;BME280;47863;55.766;37.672;2023-05-27T10:16:27;99800.44;;;47.88;8.79
61906;BME280;47863;55.766;37.672;2023-05-27T10:18:54;99795.63;;;47.77;9.07
61906;BME280;47863;55.766;37.672;2023-05-27T10:21:22;99781.94;;;47.61;8.56
61906;BME280;47863;55.766;37.672;2023-05-27T10:24:09;99810.66;;;47.71;8.32
61906;BME280;47863;55.766;37.672;2023-05-27T10:26:38;99742.75;;;47.35;9.21
61906;BME280;47863;55.766;37.672;2023-05-27T10:29:12;99800.97;;;47.64;8.56
61906;BME280;47863;55.766;37.672;2023-05-27T10:32:04;99804.75;;;47.36;8.65
61906;BME280;47863;55.766;37.672;2023-05-27T10:34:37;99808.06;;;47.06;8.62
61906;BME280;47863;55.766;37.672;2023-05-27T10:37:03;99804.84;;;46.93;8.83
61906;BME280;47863;55.766;37.672;2023-05-27T10:39:29;99804.47;;;46.91;9.21
61906;BME280;47863;55.766;37.672;2023-05-27T10:41:56;99801.63;;;46.84;8.75
61906;BME280;47863;55.766;37.672;2023-05-27T10:44:33;99785.03;;;46.61;9.34
61906;BME280;47863;55.766;37.672;2023-05-27T10:49:33;99798.00;;;46.29;8.76
61906;BME280;47863;55.766;37.672;2023-05-27T10:52:15;99805.28;;;46.23;9.51
61906;BME280;47863;55.766;37.672;2023-05-27T10:54:43;99797.56;;;46.13;8.72
61906;BME280;47863;55.766;37.672;2023-05-27T10:57:11;99814.56;;;46.17;9.39
61906;BME280;47863;55.766;37.672;2023-05-27T10:59:40;99807.25;;;45.94;8.79
61906;BME280;47863;55.766;37.672;2023-05-27T11:02:11;99805.19;;;45.80;9.00
61906;BME280;47863;55.766;37.672;2023-05-27T11:04:37;99802.78;;;45.82;9.27
61906;BME280;47863;55.766;37.672;2023-05-27T11:07:03;99807.19;;;45.83;9.29
61906;BME280;47863;55.766;37.672;2023-05-27T11:09:29;99796.28;;;45.82;9.05
61906;BME280;47863;55.766;37.672;2023-05-27T11:11:56;99800.72;;;45.68;9.03
61906;BME280;47863;55.766;37.672;2023-05-27T11:14:23;99796.56;;;45.48;8.88
61906;BME280;47863;55.766;37.672;2023-05-27T11:16:49;99782.34;;;45.30;9.51
61906;BME280;47863;55.766;37.672;2023-05-27T11:19:20;99802.59;;;45.36;9.59
61906;BME280;47863;55.766;37.672;2023-05-27T11:21:47;99804.56;;;45.28;9.04
61906;BME280;47863;55.766;37.672;2023-05-27T11:24:17;99806.03;;;45.04;9.31
61906;BME280;47863;55.766;37.672;2023-05-27T11:26:44;99784.81;;;44.72;9.17
61906;BME280;47863;55.766;37.672;2023-05-27T11:29:12;99771.34;;;44.48;9.44
61906;BME280;47863;55.766;37.672;2023-05-27T11:31:38;99799.09;;;44.42;9.49
61906;BME280;47863;55.766;37.672;2023-05-27T11:34:13;99797.75;;;44.25;9.30
61906;BME280;47863;55.766;37.672;2023-05-27T11:36:39;99791.47;;;44.05;9.41
61906;BME280;47863;55.766;37.672;2023-05-27T11:39:05;99770.09;;;43.29;9.63
61906;BME280;47863;55.766;37.672;2023-05-27T11:41:32;99777.38;;;43.04;10.01
61906;BME280;47863;55.766;37.672;2023-05-27T11:44:06;99783.91;;;43.11;9.94
61906;BME280;47863;55.766;37.672;2023-05-27T11:46:45;99782.47;;;42.94;9.80
61906;BME280;47863;55.766;37.672;2023-05-27T11:49:21;99775.59;;;42.92;9.90
61906;BME280;47863;55.766;37.672;2023-05-27T11:51:49;99783.47;;;42.83;9.85
61906;BME280;47863;55.766;37.672;2023-05-27T11:54:18;99786.59;;;42.74;9.98
61906;BME280;47863;55.766;37.672;2023-05-27T11:56:45;99773.16;;;42.40;9.79
61906;BME280;47863;55.766;37.672;2023-05-27T11:59:11;99779.59;;;42.18;10.18
61906;BME280;47863;55.766;37.672;2023-05-27T12:01:37;99787.91;;;41.13;10.89
61906;BME280;47863;55.766;37.672;2023-05-27T12:04:03;99784.47;;;40.85;10.65
61906;BME280;47863;55.766;37.672;2023-05-27T12:06:29;99787.31;;;40.53;11.09
61906;BME280;47863;55.766;37.672;2023-05-27T12:08:54;99740.78;;;39.76;10.94
61906;BME280;47863;55.766;37.672;2023-05-27T12:11:21;99789.38;;;39.80;11.12
61906;BME280;47863;55.766;37.672;2023-05-27T12:13:47;99778.84;;;39.77;11.12
61906;BME280;47863;55.766;37.672;2023-05-27T12:16:13;99794.88;;;39.76;11.11
61906;BME280;47863;55.766;37.672;2023-05-27T12:18:38;99792.25;;;39.68;11.21
61906;BME280;47863;55.766;37.672;2023-05-27T12:21:07;99771.59;;;39.19;10.89
61906;BME280;47863;55.766;37.672;2023-05-27T12:23:33;99793.72;;;38.59;11.10
61906;BME280;47863;55.766;37.672;2023-05-27T12:25:59;99786.25;;;37.51;12.12
61906;BME280;47863;55.766;37.672;2023-05-27T12:28:25;99792.06;;;36.27;12.20
61906;BME280;47863;55.766;37.672;2023-05-27T12:30:52;99733.72;;;34.65;12.90
61906;BME280;47863;55.766;37.672;2023-05-27T12:33:17;99785.13;;;33.73;13.94
61906;BME280;47863;55.766;37.672;2023-05-27T12:35:43;99782.88;;;32.75;14.34
61906;BME280;47863;55.766;37.672;2023-05-27T12:38:09;99786.38;;;31.87;14.83
61906;BME280;47863;55.766;37.672;2023-05-27T12:40:35;99773.88;;;31.00;15.23
61906;BME280;47863;55.766;37.672;2023-05-27T12:43:01;99781.69;;;30.20;15.44
61906;BME280;47863;55.766;37.672;2023-05-27T12:45:30;99780.59;;;29.53;15.97
61906;BME280;47863;55.766;37.672;2023-05-27T12:47:55;99788.53;;;29.15;16.09
61906;BME280;47863;55.766;37.672;2023-05-27T12:50:21;99797.22;;;28.87;16.46
61906;BME280;47863;55.766;37.672;2023-05-27T12:52:49;99785.47;;;28.51;16.37
61906;BME280;47863;55.766;37.672;2023-05-27T12:55:16;99793.25;;;28.13;16.92
61906;BME280;47863;55.766;37.672;2023-05-27T12:57:47;99783.91;;;27.73;17.21